createdAt,value
2023-01-03T00:04:49.188Z,100806.50
2023-01-03T00:09:51.174Z,100809.00
2023-01-03T00:14:52.579Z,100812.09
2023-01-03T00:19:53.999Z,100805.88
2023-01-03T00:24:55.367Z,100805.72
2023-01-03T00:29:56.733Z,100817.69
2023-01-03T00:35:03.079Z,100819.09
2023-01-03T00:40:06.897Z,100824.09
2023-01-03T00:45:10.598Z,100823.25
2023-01-03T00:50:12.173Z,100838.66
2023-01-03T00:55:13.544Z,100838.69
2023-01-03T01:00:15.107Z,100857.38
2023-01-03T01:05:16.496Z,100854.78
2023-01-03T01:10:19.485Z,100863.78
2023-01-03T01:15:20.916Z,100876.22
2023-01-03T01:20:22.281Z,100880.03
2023-01-03T01:25:23.649Z,100879.44
2023-01-03T01:30:25.041Z,100899.84
2023-01-03T01:35:26.469Z,100906.50
2023-01-03T01:40:27.843Z,100912.56
2023-01-03T01:45:29.224Z,100924.56
2023-01-03T01:50:46.393Z,100939.69
2023-01-03T01:55:59.330Z,100936.13
2023-01-03T02:01:00.747Z,100943.69
2023-01-03T02:06:02.379Z,100941.16
2023-01-03T02:11:06.668Z,100949.13
2023-01-03T02:16:19.930Z,100948.50
2023-01-03T02:21:49.523Z,100945.78
2023-01-03T02:27:14.747Z,100941.41
2023-01-03T02:32:43.119Z,100948.91
2023-01-03T02:37:53.369Z,100954.13
2023-01-03T02:43:06.427Z,100954.81
2023-01-03T02:48:27.141Z,100954.63
2023-01-03T02:53:34.170Z,100949.78
2023-01-03T02:58:36.401Z,100949.94
2023-01-03T03:03:38.769Z,100958.34
2023-01-03T03:08:43.134Z,100959.16
2023-01-03T03:13:53.263Z,100953.53
2023-01-03T03:19:01.193Z,100964.47
2023-01-03T03:24:26.657Z,100967.63
2023-01-03T03:29:27.896Z,100965.28
2023-01-03T03:34:31.058Z,100967.59
2023-01-03T03:39:51.098Z,100974.94
2023-01-03T03:45:02.009Z,100981.69
2023-01-03T03:50:11.423Z,100984.84
2023-01-03T03:55:37.367Z,100997.41
2023-01-03T04:00:39.701Z,100995.13
2023-01-03T04:05:42.702Z,100998.25
2023-01-03T04:10:44.157Z,101004.56
2023-01-03T04:15:45.553Z,101006.69
2023-01-03T04:20:46.978Z,101008.81
2023-01-03T04:25:51.247Z,101016.75
2023-01-03T04:30:52.633Z,101012.97
2023-01-03T04:35:54.016Z,101019.50
2023-01-03T04:40:55.405Z,101033.81
2023-01-03T04:45:56.908Z,101038.63
2023-01-03T04:50:59.294Z,101036.06
2023-01-03T04:56:00.706Z,101049.31
2023-01-03T05:01:03.079Z,101055.41
2023-01-03T05:06:08.274Z,101051.84
2023-01-03T05:11:09.701Z,101056.69
2023-01-03T05:16:12.964Z,101063.41
2023-01-03T05:21:37.068Z,101073.50
2023-01-03T05:26:39.556Z,101073.28
2023-01-03T05:31:41.022Z,101071.78
2023-01-03T05:36:42.449Z,101089.25
2023-01-03T05:42:02.164Z,101093.47
2023-01-03T05:47:04.358Z,101097.66
2023-01-03T05:52:05.777Z,101091.34
2023-01-03T05:57:07.185Z,101095.94
2023-01-03T06:02:08.722Z,101096.59
2023-01-03T06:07:10.210Z,101101.03
2023-01-03T06:12:11.592Z,101107.72
2023-01-03T06:17:31.354Z,101103.75
2023-01-03T06:22:32.774Z,101107.94
2023-01-03T06:27:34.179Z,101111.91
2023-01-03T06:32:35.591Z,101127.69
2023-01-03T06:37:37.005Z,101124.34
2023-01-03T06:42:44.238Z,101118.66
2023-01-03T06:48:04.155Z,101129.16
2023-01-03T06:53:14.238Z,101133.16
2023-01-03T06:58:15.620Z,101141.75
2023-01-03T07:03:16.986Z,101144.09
2023-01-03T07:08:18.412Z,101142.63
2023-01-03T07:13:38.490Z,101139.47
2023-01-03T07:18:39.858Z,101153.75
2023-01-03T07:23:41.267Z,101160.06
2023-01-03T07:28:42.672Z,101160.06
2023-01-03T07:33:45.060Z,101171.41
2023-01-03T07:38:46.686Z,101168.25
2023-01-03T07:43:48.859Z,101170.78
2023-01-03T07:48:52.155Z,101180.25
2023-01-03T07:53:53.548Z,101185.91
2023-01-03T07:58:54.975Z,101196.00
2023-01-03T08:03:56.367Z,101205.47
2023-01-03T08:09:16.290Z,101205.03
2023-01-03T08:14:21.963Z,101213.47
2023-01-03T08:19:26.890Z,101223.13
2023-01-03T08:24:28.313Z,101230.25
2023-01-03T08:29:29.747Z,101218.06
2023-01-03T08:34:31.628Z,101223.53
2023-01-03T08:39:36.614Z,101222.91
2023-01-03T08:44:38.002Z,101224.78
2023-01-03T08:49:39.387Z,101233.22
2023-01-03T08:54:41.000Z,101228.97
2023-01-03T08:59:42.396Z,101234.44
2023-01-03T09:04:43.786Z,101241.41
2023-01-03T09:09:45.153Z,101250.63
2023-01-03T09:14:46.553Z,101261.38
2023-01-03T09:19:47.986Z,101255.50
2023-01-03T09:24:49.433Z,101254.41
2023-01-03T09:29:52.982Z,101258.66
2023-01-03T09:34:54.406Z,101263.69
2023-01-03T09:39:55.786Z,101262.41
2023-01-03T09:44:58.691Z,101267.88
2023-01-03T09:55:51.142Z,101280.91
2023-01-03T10:01:11.180Z,101278.59
2023-01-03T10:06:30.727Z,101267.25
2023-01-03T10:11:34.951Z,101273.75
2023-01-03T10:17:10.186Z,101277.34
2023-01-03T10:22:14.333Z,101282.16
2023-01-03T10:27:17.807Z,101273.53
2023-01-03T10:32:41.616Z,101270.38
2023-01-03T10:37:43.239Z,101264.09
2023-01-03T10:42:44.670Z,101273.34
2023-01-03T10:47:57.444Z,101267.25
2023-01-03T10:53:05.678Z,101266.63
2023-01-03T10:58:28.047Z,101267.47
2023-01-03T11:03:32.139Z,101256.09
2023-01-03T11:08:47.293Z,101251.06
2023-01-03T11:13:48.711Z,101248.56
2023-01-03T11:19:00.958Z,101253.59
2023-01-03T11:24:15.595Z,101242.63
2023-01-03T11:29:26.298Z,101225.63
2023-01-03T11:35:11.583Z,101224.34
2023-01-03T11:40:23.402Z,101226.47
2023-01-03T11:45:48.880Z,101225.63
2023-01-03T11:51:07.397Z,101226.91
2023-01-03T11:56:36.919Z,101226.47
2023-01-03T12:01:48.965Z,101219.31
2023-01-03T12:07:46.532Z,101234.47
2023-01-03T12:12:58.464Z,101217.84
2023-01-03T12:18:06.482Z,101226.69
2023-01-03T12:23:16.596Z,101223.94
2023-01-03T12:28:25.176Z,101235.28
2023-01-03T12:33:45.038Z,101228.13
2023-01-03T12:38:55.739Z,101215.75
2023-01-03T12:44:19.726Z,101227.31
2023-01-03T12:49:35.253Z,101217.66
2023-01-03T12:54:39.846Z,101207.53
2023-01-03T12:59:57.261Z,101201.66
2023-01-03T13:05:08.986Z,101201.47
2023-01-03T13:10:13.859Z,101204.38
2023-01-03T13:15:35.388Z,101191.81
2023-01-03T13:20:37.882Z,101193.25
2023-01-03T13:25:41.194Z,101198.06
2023-01-03T13:30:42.716Z,101207.97
2023-01-03T13:35:44.060Z,101203.34
2023-01-03T13:41:17.092Z,101201.25
2023-01-03T13:46:25.635Z,101206.94
2023-01-03T13:51:32.506Z,101195.38
2023-01-03T13:56:42.978Z,101194.53
2023-01-03T14:01:52.159Z,101199.97
2023-01-03T14:07:15.163Z,101202.50
2023-01-03T14:12:34.653Z,101209.66
2023-01-03T14:17:44.836Z,101216.16
2023-01-03T14:22:48.210Z,101218.91
2023-01-03T14:27:49.610Z,101219.13
2023-01-03T14:32:51.000Z,101224.78
2023-01-03T14:37:52.437Z,101228.56
2023-01-03T14:42:54.524Z,101228.97
2023-01-03T14:47:55.967Z,101217.84
2023-01-03T14:53:01.514Z,101226.28
2023-01-03T14:58:05.138Z,101231.50
2023-01-03T15:03:09.019Z,101237.41
2023-01-03T15:08:22.738Z,101249.38
2023-01-03T15:13:26.787Z,101247.69
2023-01-03T15:18:29.530Z,101252.53
2023-01-03T15:23:37.947Z,101253.16
2023-01-03T15:29:15.607Z,101254.59
2023-01-03T15:34:34.935Z,101255.47
2023-01-03T15:39:42.776Z,101260.91
2023-01-03T15:44:44.377Z,101266.81
2023-01-03T15:49:47.458Z,101269.34
2023-01-03T15:54:48.846Z,101276.50
2023-01-03T15:59:54.968Z,101280.69
2023-01-03T16:04:56.383Z,101281.31
2023-01-03T16:09:57.762Z,101275.66
2023-01-03T16:14:59.152Z,101285.31
2023-01-03T16:20:00.707Z,101286.59
2023-01-03T16:25:02.200Z,101288.91
2023-01-03T16:30:03.656Z,101283.44
2023-01-03T16:35:14.744Z,101287.00
2023-01-03T16:40:17.820Z,101287.63
2023-01-03T16:45:19.556Z,101294.78
2023-01-03T16:50:21.015Z,101291.19
2023-01-03T16:55:29.903Z,101284.47
2023-01-03T17:00:32.443Z,101285.50
2023-01-03T17:05:35.551Z,101290.34
2023-01-03T17:10:38.588Z,101292.66
2023-01-03T17:15:40.951Z,101291.44
2023-01-03T17:20:42.334Z,101287.22
2023-01-03T17:25:43.701Z,101292.47
2023-01-03T17:30:45.105Z,101300.88
2023-01-03T17:35:46.508Z,101301.09
2023-01-03T17:40:48.686Z,101310.97
2023-01-03T17:46:10.344Z,101315.59
2023-01-03T17:51:12.417Z,101315.59
2023-01-03T17:56:14.999Z,101309.50
2023-01-03T18:01:16.462Z,101308.88
2023-01-03T18:06:19.806Z,101311.59
2023-01-03T18:11:23.694Z,101313.91
2023-01-03T18:16:25.169Z,101318.31
2023-01-03T18:21:27.783Z,101305.72
2023-01-03T18:26:34.159Z,101309.50
2023-01-03T18:31:35.653Z,101321.50
2023-01-03T18:36:45.408Z,101318.75
2023-01-03T18:41:46.833Z,101314.94
2023-01-03T18:46:48.303Z,101321.25
2023-01-03T18:51:49.731Z,101329.88
2023-01-03T18:56:51.160Z,101327.56
2023-01-03T19:01:53.276Z,101331.78
2023-01-03T19:06:54.896Z,101325.88
2023-01-03T19:11:56.364Z,101327.38
2023-01-03T19:16:57.753Z,101331.16
2023-01-03T19:21:59.131Z,101321.88
2023-01-03T19:27:13.088Z,101322.31
2023-01-03T19:32:25.485Z,101312.44
2023-01-03T19:37:26.885Z,101310.56
2023-01-03T19:42:46.756Z,101307.59
2023-01-03T19:47:48.151Z,101308.66
2023-01-03T19:52:49.593Z,101303.59
2023-01-03T19:57:51.133Z,101302.53
2023-01-03T20:02:54.725Z,101296.47
2023-01-03T20:07:56.252Z,101294.97
2023-01-03T20:12:57.696Z,101300.03
2023-01-03T20:17:59.189Z,101294.97
2023-01-03T20:23:06.832Z,101309.28
2023-01-03T20:28:20.617Z,101305.09
2023-01-03T20:33:22.043Z,101304.25
2023-01-03T20:38:27.131Z,101299.19
2023-01-03T20:43:28.758Z,101297.28
2023-01-03T20:48:30.367Z,101299.22
2023-01-03T20:53:31.740Z,101292.28
2023-01-03T20:58:33.138Z,101296.47
2023-01-03T21:03:35.300Z,101282.16
2023-01-03T21:08:54.948Z,101292.91
2023-01-03T21:13:57.328Z,101287.19
2023-01-03T21:19:10.407Z,101284.28
2023-01-03T21:24:11.835Z,101279.00
2023-01-03T21:29:13.247Z,101275.44
2023-01-03T21:34:16.769Z,101273.13
2023-01-03T21:39:18.160Z,101258.66
2023-01-03T21:44:19.588Z,101265.75
2023-01-03T21:49:20.987Z,101266.00
2023-01-03T21:54:22.417Z,101268.06
2023-01-03T21:59:24.008Z,101256.94
2023-01-03T22:04:25.433Z,101257.38
2023-01-03T22:09:46.367Z,101262.84
2023-01-03T22:14:47.788Z,101247.28
2023-01-03T22:19:49.187Z,101256.75
2023-01-03T22:24:50.565Z,101246.88
2023-01-03T22:29:51.940Z,101248.75
2023-01-03T22:34:53.325Z,101241.81
2023-01-03T22:39:54.727Z,101247.06
2023-01-03T22:44:56.164Z,101241.41
2023-01-03T22:49:57.545Z,101239.06
2023-01-03T22:54:59.047Z,101233.19
2023-01-03T23:00:00.433Z,101235.94
2023-01-03T23:05:01.842Z,101233.22
2023-01-03T23:10:03.319Z,101228.78
2023-01-03T23:15:05.140Z,101223.97
2023-01-03T23:20:06.783Z,101223.94
2023-01-03T23:25:08.393Z,101212.38
2023-01-03T23:30:10.216Z,101220.16
2023-01-03T23:35:11.873Z,101211.34
2023-01-03T23:40:13.618Z,101212.81
2023-01-03T23:45:15.046Z,101206.28
2023-01-03T23:50:16.436Z,101202.06
2023-01-03T23:55:17.883Z,101196.00
